createdAt,value
2019-04-16T00:00:56.567Z,7.50
2019-04-16T00:03:02.282Z,5.43
2019-04-16T00:05:27.477Z,6.20
2019-04-16T00:07:49.873Z,5.93
2019-04-16T00:10:13.069Z,5.50
2019-04-16T00:12:27.524Z,5.30
2019-04-16T00:14:36.537Z,5.50
2019-04-16T00:16:44.552Z,4.80
2019-04-16T00:18:57.124Z,6.23
2019-04-16T00:21:23.966Z,5.20
2019-04-16T00:23:39.626Z,7.13
2019-04-16T00:25:44.830Z,4.30
2019-04-16T00:27:50.821Z,5.43
2019-04-16T00:29:55.887Z,4.77
2019-04-16T00:32:11.962Z,6.20
2019-04-16T00:34:17.617Z,6.07
2019-04-16T00:36:22.621Z,4.57
2019-04-16T00:38:39.963Z,5.60
2019-04-16T00:40:35.584Z,5.00
2019-04-16T00:42:40.742Z,5.33
2019-04-16T00:44:46.200Z,4.90
2019-04-16T00:46:51.296Z,5.73
2019-04-16T00:48:56.860Z,5.20
2019-04-16T00:51:02.579Z,4.60
2019-04-16T00:53:09.013Z,5.50
2019-04-16T00:55:14.798Z,4.87
2019-04-16T00:57:20.197Z,6.00
2019-04-16T00:59:25.357Z,4.60
2019-04-16T01:01:32.615Z,6.13
2019-04-16T01:03:40.396Z,5.30
2019-04-16T01:05:46.958Z,5.23
2019-04-16T01:07:53.826Z,5.43
2019-04-16T01:09:58.950Z,6.70
2019-04-16T01:12:04.134Z,5.87
2019-04-16T01:14:09.308Z,5.27
2019-04-16T01:16:15.194Z,5.80
2019-04-16T01:18:20.317Z,7.70
2019-04-16T01:20:25.803Z,5.10
2019-04-16T01:22:31.223Z,4.23
2019-04-16T01:24:36.951Z,5.00
2019-04-16T01:26:42.486Z,4.77
2019-04-16T01:29:03.929Z,5.30
2019-04-16T01:31:19.891Z,5.00
2019-04-16T01:33:32.643Z,4.97
2019-04-16T01:35:51.708Z,6.37
2019-04-16T01:38:14.350Z,5.27
2019-04-16T01:40:25.154Z,5.20
2019-04-16T01:42:30.887Z,5.07
2019-04-16T01:44:35.923Z,8.37
2019-04-16T01:46:41.857Z,5.30
2019-04-16T01:48:46.881Z,5.00
2019-04-16T01:50:52.431Z,5.93
2019-04-16T01:52:57.856Z,6.37
2019-04-16T01:55:02.974Z,5.97
2019-04-16T01:57:08.225Z,6.10
2019-04-16T01:59:13.662Z,6.40
2019-04-16T02:01:20.776Z,6.07
2019-04-16T02:03:28.173Z,6.47
2019-04-16T02:05:33.769Z,6.47
2019-04-16T02:07:39.000Z,6.97
2019-04-16T02:09:44.519Z,5.93
2019-04-16T02:11:50.211Z,5.43
2019-04-16T02:13:55.630Z,6.87
2019-04-16T02:16:00.844Z,7.20
2019-04-16T02:18:06.286Z,6.93
2019-04-16T02:20:11.556Z,6.97
2019-04-16T02:22:16.991Z,5.60
2019-04-16T02:24:22.637Z,5.50
2019-04-16T02:26:28.122Z,8.13
2019-04-16T02:28:33.482Z,6.50
2019-04-16T02:30:39.897Z,5.50
2019-04-16T02:32:45.254Z,6.57
2019-04-16T02:34:50.397Z,6.27
2019-04-16T02:37:00.746Z,6.00
2019-04-16T02:39:02.837Z,6.33
2019-04-16T02:41:08.872Z,7.17
2019-04-16T02:43:14.376Z,5.23
2019-04-16T02:45:23.533Z,5.97
2019-04-16T02:47:26.725Z,8.07
2019-04-16T02:49:32.010Z,6.57
2019-04-16T02:52:01.977Z,5.87
2019-04-16T02:54:32.355Z,10.67
2019-04-16T02:56:52.149Z,5.97
2019-04-16T02:59:11.980Z,8.17
2019-04-16T03:01:26.872Z,5.33
2019-04-16T03:03:37.748Z,7.53
2019-04-16T03:05:46.394Z,6.40
2019-04-16T03:07:51.809Z,6.07
2019-04-16T03:10:01.579Z,7.07
2019-04-16T03:12:04.001Z,5.60
2019-04-16T03:14:09.497Z,7.37
2019-04-16T03:16:29.200Z,5.90
2019-04-16T03:18:39.508Z,5.73
2019-04-16T03:20:44.601Z,6.13
2019-04-16T03:22:50.289Z,6.17
2019-04-16T03:24:55.746Z,7.23
2019-04-16T03:27:04.432Z,7.93
2019-04-16T03:29:09.047Z,7.73
2019-04-16T03:31:20.247Z,7.23
2019-04-16T03:33:21.259Z,7.53
2019-04-16T03:35:27.313Z,7.13
2019-04-16T03:37:33.071Z,7.03
2019-04-16T03:39:43.756Z,6.67
2019-04-16T03:41:46.879Z,7.10
2019-04-16T03:43:53.218Z,6.47
2019-04-16T03:45:58.863Z,7.47
2019-04-16T03:48:04.062Z,6.97
2019-04-16T03:50:09.697Z,6.80
2019-04-16T03:52:15.650Z,6.97
2019-04-16T03:54:22.433Z,6.67
2019-04-16T03:56:30.633Z,7.23
2019-04-16T03:58:38.541Z,6.77
2019-04-16T04:00:44.185Z,8.37
2019-04-16T04:02:54.271Z,6.03
2019-04-16T04:04:57.620Z,6.93
2019-04-16T04:07:03.061Z,5.83
2019-04-16T04:09:08.321Z,5.50
2019-04-16T04:11:13.686Z,7.67
2019-04-16T04:13:19.298Z,6.37
2019-04-16T04:15:26.343Z,5.77
2019-04-16T04:17:35.650Z,7.70
2019-04-16T04:19:39.827Z,6.87
2019-04-16T04:21:45.228Z,5.67
2019-04-16T04:23:50.602Z,8.67
2019-04-16T04:25:55.777Z,6.40
2019-04-16T04:28:01.411Z,7.53
2019-04-16T04:30:07.767Z,7.47
2019-04-16T04:32:13.236Z,6.57
2019-04-16T04:34:18.336Z,7.30
2019-04-16T04:36:27.088Z,6.93
2019-04-16T04:38:30.533Z,6.20
2019-04-16T04:40:44.205Z,7.37
2019-04-16T04:42:42.787Z,6.00
2019-04-16T04:44:48.555Z,7.63
2019-04-16T04:46:54.086Z,7.53
2019-04-16T04:49:00.462Z,6.30
2019-04-16T04:51:08.006Z,7.07
2019-04-16T04:53:17.765Z,9.70
2019-04-16T04:55:19.907Z,7.67
2019-04-16T04:57:25.410Z,6.23
2019-04-16T04:59:30.608Z,6.97
2019-04-16T05:01:36.051Z,6.23
2019-04-16T05:03:49.549Z,7.37
2019-04-16T05:05:56.737Z,7.77
2019-04-16T05:08:02.547Z,7.10
2019-04-16T05:10:08.468Z,8.83
2019-04-16T05:12:14.094Z,7.73
2019-04-16T05:14:19.390Z,7.83
2019-04-16T05:16:25.051Z,8.50
2019-04-16T05:18:30.292Z,7.07
2019-04-16T05:20:35.697Z,6.87
2019-04-16T05:22:41.148Z,6.43
2019-04-16T05:24:46.463Z,10.23
2019-04-16T05:26:51.551Z,9.47
2019-04-16T05:28:58.476Z,8.33
2019-04-16T05:31:03.677Z,6.77
2019-04-16T05:33:08.940Z,8.63
2019-04-16T05:35:14.195Z,5.83
2019-04-16T05:37:19.911Z,7.47
2019-04-16T05:39:28.892Z,6.90
2019-04-16T05:41:34.590Z,6.17
2019-04-16T05:43:40.443Z,9.33
2019-04-16T05:45:45.952Z,6.77
2019-04-16T05:47:51.423Z,6.63
2019-04-16T05:49:57.907Z,6.20
2019-04-16T05:52:04.159Z,6.77
2019-04-16T05:54:29.611Z,7.30
2019-04-16T05:56:39.766Z,7.83
2019-04-16T05:58:44.855Z,7.07
2019-04-16T06:00:59.625Z,7.97
2019-04-16T06:03:05.143Z,7.50
2019-04-16T06:05:10.418Z,7.60
2019-04-16T06:07:15.520Z,7.80
2019-04-16T06:09:21.081Z,6.23
2019-04-16T06:11:29.867Z,7.27
2019-04-16T06:13:58.377Z,6.17
2019-04-16T06:16:13.208Z,6.80
2019-04-16T06:18:29.219Z,6.80
2019-04-16T06:20:53.782Z,6.37
2019-04-16T06:23:16.754Z,7.90
2019-04-16T06:25:44.571Z,5.83
2019-04-16T06:27:59.192Z,6.57
2019-04-16T06:30:24.875Z,6.37
2019-04-16T06:32:47.300Z,9.10
2019-04-16T06:35:11.236Z,8.20
2019-04-16T06:37:23.541Z,6.27
2019-04-16T06:39:51.026Z,5.10
2019-04-16T06:42:08.786Z,6.63
2019-04-16T06:44:19.073Z,7.17
2019-04-16T06:46:42.441Z,7.47
2019-04-16T06:49:17.799Z,8.77
2019-04-16T06:51:44.570Z,7.13
2019-04-16T06:54:11.746Z,6.70
2019-04-16T06:56:37.382Z,6.83
2019-04-16T06:58:51.159Z,6.27
2019-04-16T07:01:22.230Z,6.70
2019-04-16T07:03:37.766Z,9.13
2019-04-16T07:06:04.037Z,6.13
2019-04-16T07:08:19.908Z,7.77
2019-04-16T07:10:34.113Z,6.43
2019-04-16T07:12:38.501Z,6.70
2019-04-16T07:14:47.953Z,6.53
2019-04-16T07:16:53.649Z,7.20
2019-04-16T07:19:00.199Z,6.63
2019-04-16T07:21:06.670Z,6.10
2019-04-16T07:23:11.633Z,6.07
2019-04-16T07:25:17.110Z,6.53
2019-04-16T07:27:22.903Z,5.93
2019-04-16T07:32:06.553Z,7.17
2019-04-16T07:34:33.459Z,6.10
2019-04-16T07:34:34.802Z,5.63
2019-04-16T07:37:00.430Z,6.20
2019-04-16T07:39:29.905Z,6.00
2019-04-16T07:42:08.659Z,6.47
2019-04-16T07:44:10.215Z,7.40
2019-04-16T07:46:37.637Z,7.60
2019-04-16T07:49:01.148Z,6.53
2019-04-16T07:51:27.365Z,5.30
2019-04-16T07:54:02.274Z,7.17
2019-04-16T07:56:13.158Z,10.90
2019-04-16T07:58:18.606Z,6.87
2019-04-16T08:00:24.330Z,12.00
2019-04-16T08:02:29.866Z,9.33
2019-04-16T08:04:36.425Z,7.23
2019-04-16T08:06:46.197Z,8.57
2019-04-16T08:08:49.051Z,8.37
2019-04-16T08:10:54.281Z,7.40
2019-04-16T08:13:15.257Z,7.33
2019-04-16T08:15:20.756Z,11.00
2019-04-16T08:17:26.611Z,12.17
2019-04-16T08:19:36.997Z,9.87
2019-04-16T08:21:40.659Z,10.93
2019-04-16T08:23:52.896Z,11.67
2019-04-16T08:26:03.490Z,11.90
2019-04-16T08:28:06.947Z,11.33
2019-04-16T08:30:13.875Z,14.53
2019-04-16T08:32:19.489Z,10.93
2019-04-16T08:34:24.699Z,11.93
2019-04-16T08:36:29.806Z,11.63
2019-04-16T08:38:35.564Z,12.77
2019-04-16T08:40:40.618Z,11.43
2019-04-16T08:42:46.266Z,13.27
2019-04-16T08:44:52.056Z,10.60
2019-04-16T08:46:59.145Z,12.23
2019-04-16T08:49:04.317Z,15.97
2019-04-16T08:51:09.777Z,11.30
2019-04-16T08:53:14.986Z,11.00
2019-04-16T08:55:20.486Z,11.70
2019-04-16T08:57:31.822Z,12.00
2019-04-16T08:59:34.341Z,14.10
2019-04-16T09:01:39.703Z,11.70
2019-04-16T09:03:45.281Z,11.77
2019-04-16T09:05:50.767Z,11.73
2019-04-16T09:08:10.903Z,11.17
2019-04-16T09:10:17.047Z,10.17
2019-04-16T09:12:12.768Z,11.60
2019-04-16T09:14:20.868Z,11.10
2019-04-16T09:16:24.646Z,12.37
2019-04-16T09:18:42.643Z,10.53
2019-04-16T09:20:48.401Z,15.20
2019-04-16T09:22:54.512Z,7.90
2019-04-16T09:25:17.965Z,9.33
2019-04-16T09:27:42.654Z,8.80
2019-04-16T09:30:02.648Z,9.43
2019-04-16T09:32:20.988Z,11.67
2019-04-16T09:34:39.602Z,11.63
2019-04-16T09:37:01.297Z,10.87
2019-04-16T09:39:27.841Z,9.63
2019-04-16T09:41:41.786Z,10.50
2019-04-16T09:43:49.285Z,11.97
2019-04-16T09:45:54.397Z,9.30
2019-04-16T09:48:02.397Z,12.27
2019-04-16T09:50:11.034Z,10.37
2019-04-16T09:52:14.721Z,11.03
2019-04-16T09:54:19.814Z,10.23
2019-04-16T09:56:29.659Z,10.60
2019-04-16T09:58:37.747Z,10.73
2019-04-16T10:00:47.192Z,13.00
2019-04-16T10:02:55.147Z,11.37
2019-04-16T10:05:00.297Z,10.13
2019-04-16T10:07:06.140Z,11.07
2019-04-16T10:09:11.296Z,9.80
2019-04-16T10:11:18.562Z,10.47
2019-04-16T10:13:31.184Z,8.93
2019-04-16T10:15:30.107Z,12.60
2019-04-16T10:17:35.536Z,10.90
2019-04-16T10:19:43.220Z,13.07
2019-04-16T10:21:53.240Z,11.70
2019-04-16T10:24:07.647Z,9.03
2019-04-16T10:26:13.198Z,12.50
2019-04-16T10:28:28.487Z,10.47
2019-04-16T10:30:42.730Z,9.00
2019-04-16T10:32:48.119Z,10.23
2019-04-16T10:34:53.199Z,8.97
2019-04-16T10:36:58.719Z,10.90
2019-04-16T10:39:13.568Z,9.87
2019-04-16T10:41:56.169Z,8.30
2019-04-16T10:44:10.866Z,11.50
2019-04-16T10:46:22.893Z,8.20
2019-04-16T10:48:50.212Z,10.67
2019-04-16T10:51:02.348Z,9.20
2019-04-16T10:53:35.130Z,8.33
2019-04-16T10:55:59.240Z,11.33
2019-04-16T10:58:32.593Z,8.40
2019-04-16T11:00:57.013Z,8.37
2019-04-16T11:03:05.944Z,9.73
2019-04-16T11:05:24.278Z,8.67
2019-04-16T11:07:30.194Z,10.20
2019-04-16T11:09:36.043Z,8.73
2019-04-16T11:11:41.800Z,8.13
2019-04-16T11:13:59.599Z,7.83
2019-04-16T11:16:00.138Z,9.45
2019-04-16T11:18:05.910Z,9.80
2019-04-16T11:20:11.425Z,9.65
2019-04-16T11:22:16.906Z,11.50
2019-04-16T11:24:22.414Z,8.83
2019-04-16T11:26:27.596Z,8.30
2019-04-16T11:28:33.008Z,7.83
2019-04-16T11:30:44.123Z,9.50
2019-04-16T11:32:53.140Z,8.07
2019-04-16T11:34:56.909Z,8.93
2019-04-16T11:37:07.450Z,10.78
2019-04-16T11:39:10.426Z,9.30
2019-04-16T11:41:15.902Z,8.68
2019-04-16T11:43:20.933Z,8.40
2019-04-16T11:45:26.093Z,8.70
2019-04-16T11:47:33.982Z,8.33
2019-04-16T11:49:38.411Z,8.23
2019-04-16T11:51:43.518Z,9.48
2019-04-16T11:53:49.080Z,8.38
2019-04-16T11:55:54.340Z,8.13
2019-04-16T11:57:59.536Z,8.70
2019-04-16T12:00:08.523Z,10.05
2019-04-16T12:02:25.551Z,8.48
2019-04-16T12:04:38.264Z,7.17
2019-04-16T12:07:14.365Z,8.23
2019-04-16T12:09:37.191Z,11.38
2019-04-16T12:11:48.729Z,7.53
2019-04-16T12:14:04.092Z,8.18
2019-04-16T12:16:24.408Z,7.15
2019-04-16T12:18:39.466Z,7.90
2019-04-16T12:20:56.552Z,7.80
2019-04-16T12:23:08.421Z,6.67
2019-04-16T12:25:48.395Z,6.97
2019-04-16T12:28:31.451Z,7.35
2019-04-16T12:30:55.481Z,7.10
2019-04-16T12:33:08.806Z,7.53
2019-04-16T12:35:17.684Z,8.23
2019-04-16T12:37:40.755Z,7.60
2019-04-16T12:40:10.814Z,7.42
2019-04-16T12:42:27.087Z,7.45
2019-04-16T12:44:46.010Z,6.50
2019-04-16T12:47:07.858Z,7.03
2019-04-16T12:49:30.983Z,8.78
2019-04-16T12:51:55.135Z,7.00
2019-04-16T12:54:25.310Z,7.30
2019-04-16T12:57:03.596Z,6.85
2019-04-16T12:59:15.238Z,7.92
2019-04-16T13:01:27.862Z,8.35
2019-04-16T13:03:37.421Z,5.62
2019-04-16T13:06:04.885Z,6.50
2019-04-16T13:08:38.583Z,6.62
2019-04-16T13:11:00.730Z,9.90
2019-04-16T13:13:22.563Z,6.15
2019-04-16T13:15:42.039Z,5.97
2019-04-16T13:18:03.810Z,5.78
2019-04-16T13:20:31.361Z,8.40
2019-04-16T13:22:40.867Z,6.12
2019-04-16T13:25:00.478Z,6.53
2019-04-16T13:27:17.206Z,6.35
2019-04-16T13:29:28.946Z,6.83
2019-04-16T13:31:30.803Z,7.40
2019-04-16T13:33:36.145Z,6.62
2019-04-16T13:35:41.342Z,6.45
2019-04-16T13:37:46.641Z,7.33
2019-04-16T13:40:10.833Z,8.38
2019-04-16T13:42:16.490Z,6.25
2019-04-16T13:44:23.811Z,6.17
2019-04-16T13:46:30.142Z,6.85
2019-04-16T13:48:45.311Z,7.20
2019-04-16T13:50:54.050Z,9.75
2019-04-16T13:53:04.871Z,7.60
2019-04-16T13:55:18.700Z,8.88
2019-04-16T13:57:24.707Z,5.87
2019-04-16T13:59:48.698Z,5.65
2019-04-16T14:02:02.745Z,6.53
2019-04-16T14:04:08.280Z,5.33
2019-04-16T14:06:13.399Z,5.67
2019-04-16T14:08:19.138Z,6.80
2019-04-16T14:10:24.310Z,5.55
2019-04-16T14:12:41.706Z,4.70
2019-04-16T14:14:36.214Z,7.10
2019-04-16T14:16:43.810Z,5.40
2019-04-16T14:18:49.515Z,7.78
2019-04-16T14:20:55.275Z,5.12
2019-04-16T14:23:01.008Z,5.67
2019-04-16T14:25:07.158Z,6.42
2019-04-16T14:27:14.470Z,5.10
2019-04-16T14:29:19.991Z,5.00
2019-04-16T14:31:25.987Z,6.30
2019-04-16T14:33:48.970Z,5.72
2019-04-16T14:35:54.382Z,5.53
2019-04-16T14:38:00.020Z,4.95
2019-04-16T14:40:22.721Z,7.05
2019-04-16T14:42:28.010Z,7.42
2019-04-16T14:44:38.951Z,4.80
2019-04-16T14:46:44.335Z,7.85
2019-04-16T14:48:50.010Z,4.45
2019-04-16T14:50:55.425Z,4.75
2019-04-16T14:53:00.596Z,4.90
2019-04-16T14:55:21.017Z,4.35
2019-04-16T14:57:26.730Z,4.97
2019-04-16T14:59:43.857Z,5.33
2019-04-16T15:02:06.499Z,4.53
2019-04-16T15:04:24.968Z,4.35
2019-04-16T15:06:39.926Z,4.35
2019-04-16T15:09:03.435Z,4.22
2019-04-16T15:11:26.995Z,4.40
2019-04-16T15:13:42.425Z,6.55
2019-04-16T15:16:06.036Z,4.72
2019-04-16T15:18:04.516Z,4.60
2019-04-16T15:20:24.887Z,4.85
2019-04-16T15:22:38.717Z,5.78
2019-04-16T15:25:01.769Z,4.20
2019-04-16T15:27:25.142Z,3.15
2019-04-16T15:29:48.558Z,4.22
2019-04-16T15:32:15.364Z,4.08
2019-04-16T15:34:23.492Z,8.28
2019-04-16T15:36:36.213Z,4.10
2019-04-16T15:38:49.379Z,3.80
2019-04-16T15:40:56.338Z,4.85
2019-04-16T15:43:11.527Z,4.75
2019-04-16T15:45:54.123Z,4.50
2019-04-16T15:48:18.965Z,4.15
2019-04-16T15:50:36.632Z,4.12
2019-04-16T15:52:49.199Z,4.58
2019-04-16T15:55:19.941Z,4.35
2019-04-16T15:57:43.706Z,4.28
2019-04-16T15:59:56.826Z,4.85
2019-04-16T16:02:12.819Z,4.20
2019-04-16T16:04:31.082Z,4.58
2019-04-16T16:06:41.555Z,4.45
2019-04-16T16:08:58.289Z,9.83
2019-04-16T16:11:08.067Z,6.08
2019-04-16T16:13:13.970Z,5.40
2019-04-16T16:15:19.156Z,4.95
2019-04-16T16:17:25.160Z,7.00
2019-04-16T16:19:31.229Z,6.03
2019-04-16T16:21:36.579Z,6.33
2019-04-16T16:23:42.351Z,5.40
2019-04-16T16:25:48.207Z,6.27
2019-04-16T16:27:53.223Z,5.28
2019-04-16T16:29:58.636Z,6.08
2019-04-16T16:32:03.862Z,7.72
2019-04-16T16:34:09.603Z,6.35
2019-04-16T16:36:15.117Z,5.17
2019-04-16T16:38:21.016Z,4.70
2019-04-16T16:40:26.276Z,4.40
2019-04-16T16:42:31.435Z,6.20
2019-04-16T16:44:36.543Z,5.65
2019-04-16T16:46:59.558Z,5.63
2019-04-16T16:49:05.262Z,5.25
2019-04-16T16:51:10.729Z,4.78
2019-04-16T16:53:21.011Z,4.30
2019-04-16T16:55:31.448Z,4.45
2019-04-16T16:57:44.699Z,4.03
2019-04-16T16:59:58.279Z,4.22
2019-04-16T17:02:27.710Z,5.55
2019-04-16T17:04:35.781Z,4.30
2019-04-16T17:06:41.271Z,4.73
2019-04-16T17:08:46.584Z,4.13
2019-04-16T17:10:51.975Z,4.23
2019-04-16T17:12:57.957Z,4.40
2019-04-16T17:15:02.947Z,4.07
2019-04-16T17:17:14.242Z,4.10
2019-04-16T17:19:16.353Z,4.60
2019-04-16T17:21:23.482Z,4.10
2019-04-16T17:23:28.848Z,4.30
2019-04-16T17:25:36.557Z,4.47
2019-04-16T17:27:51.193Z,4.40
2019-04-16T17:29:49.992Z,3.17
2019-04-16T17:31:55.955Z,3.83
2019-04-16T17:34:01.161Z,5.37
2019-04-16T17:36:06.402Z,4.40
2019-04-16T17:38:11.453Z,3.87
2019-04-16T17:40:22.380Z,3.83
2019-04-16T17:42:30.751Z,4.30
2019-04-16T17:45:04.252Z,4.47
2019-04-16T17:47:31.272Z,3.73
2019-04-16T17:49:32.424Z,3.77
2019-04-16T17:52:01.615Z,4.40
2019-04-16T17:54:15.203Z,6.27
2019-04-16T17:56:38.088Z,3.53
2019-04-16T17:58:50.348Z,3.67
2019-04-16T18:01:21.023Z,3.60
2019-04-16T18:03:37.667Z,4.10
2019-04-16T18:05:57.256Z,4.00
2019-04-16T18:08:20.492Z,4.20
2019-04-16T18:10:59.955Z,3.90
2019-04-16T18:13:16.441Z,4.17
2019-04-16T18:15:30.884Z,4.30
2019-04-16T18:17:47.258Z,3.63
2019-04-16T18:19:59.947Z,3.53
2019-04-16T18:22:33.349Z,3.33
2019-04-16T18:25:04.003Z,4.03
2019-04-16T18:27:32.151Z,3.40
2019-04-16T18:29:59.549Z,3.23
2019-04-16T18:32:15.052Z,3.40
2019-04-16T18:34:54.363Z,3.23
2019-04-16T18:37:17.831Z,2.70
2019-04-16T18:39:37.430Z,3.00
2019-04-16T18:41:49.027Z,2.70
2019-04-16T18:44:29.041Z,3.80
2019-04-16T18:46:54.849Z,3.07
2019-04-16T18:49:05.768Z,2.60
2019-04-16T18:51:11.965Z,3.87
2019-04-16T18:53:17.091Z,3.33
2019-04-16T18:55:22.699Z,2.93
2019-04-16T18:57:29.110Z,2.40
2019-04-16T18:59:35.578Z,2.87
2019-04-16T19:01:42.797Z,3.00
2019-04-16T19:03:48.584Z,2.87
2019-04-16T19:05:54.373Z,3.57
2019-04-16T19:08:01.035Z,4.90
2019-04-16T19:10:06.833Z,3.00
2019-04-16T19:12:12.655Z,3.97
2019-04-16T19:14:18.330Z,2.63
2019-04-16T19:16:23.793Z,3.53
2019-04-16T19:18:28.953Z,2.87
2019-04-16T19:20:34.316Z,3.70
2019-04-16T19:22:39.769Z,5.00
2019-04-16T19:24:45.442Z,3.07
2019-04-16T19:26:51.218Z,2.33
2019-04-16T19:28:56.923Z,2.83
2019-04-16T19:31:02.025Z,3.17
2019-04-16T19:33:07.249Z,2.53
2019-04-16T19:35:17.638Z,2.33
2019-04-16T19:37:19.952Z,3.00
2019-04-16T19:39:25.412Z,4.27
2019-04-16T19:41:30.859Z,2.30
2019-04-16T19:43:36.319Z,2.57
2019-04-16T19:45:43.731Z,3.17
2019-04-16T19:47:48.882Z,2.00
2019-04-16T19:49:54.010Z,3.33
2019-04-16T19:51:59.275Z,2.40
2019-04-16T19:54:04.871Z,2.43
2019-04-16T19:56:10.031Z,3.03
2019-04-16T19:58:16.135Z,1.80
2019-04-16T20:00:22.998Z,3.73
2019-04-16T20:02:32.970Z,2.27
2019-04-16T20:04:35.644Z,2.10
2019-04-16T20:06:40.995Z,2.30
2019-04-16T20:08:46.016Z,1.77
2019-04-16T20:10:51.846Z,1.87
2019-04-16T20:12:59.573Z,2.07
2019-04-16T20:15:07.931Z,1.57
2019-04-16T20:17:12.492Z,1.97
2019-04-16T20:19:18.166Z,2.17
2019-04-16T20:21:23.915Z,2.47
2019-04-16T20:23:29.503Z,1.90
2019-04-16T20:25:35.660Z,1.90
2019-04-16T20:27:41.076Z,3.10
2019-04-16T20:29:46.013Z,1.90
2019-04-16T20:31:52.445Z,1.67
2019-04-16T20:33:57.563Z,3.37
2019-04-16T20:36:03.174Z,2.23
2019-04-16T20:38:08.188Z,3.43
2019-04-16T20:40:14.584Z,4.77
2019-04-16T20:42:20.774Z,1.97
2019-04-16T20:44:25.779Z,2.97
2019-04-16T20:46:31.161Z,2.57
2019-04-16T20:48:36.755Z,3.20
2019-04-16T20:50:41.966Z,2.30
2019-04-16T20:52:47.063Z,1.77
2019-04-16T20:54:54.381Z,2.87
2019-04-16T20:57:00.033Z,1.43
2019-04-16T20:59:05.728Z,2.13
2019-04-16T21:01:10.811Z,2.30
2019-04-16T21:03:22.152Z,1.13
2019-04-16T21:05:24.103Z,1.30
2019-04-16T21:07:29.279Z,1.40
2019-04-16T21:09:35.920Z,1.30
2019-04-16T21:11:41.920Z,2.03
2019-04-16T21:13:50.122Z,1.90
2019-04-16T21:15:57.286Z,2.67
2019-04-16T21:18:01.569Z,1.47
2019-04-16T21:20:06.968Z,3.33
2019-04-16T21:22:12.433Z,1.23
2019-04-16T21:24:17.803Z,1.57
2019-04-16T21:26:23.259Z,2.30
2019-04-16T21:28:36.431Z,1.40
2019-04-16T21:30:43.385Z,1.77
2019-04-16T21:33:06.177Z,2.17
2019-04-16T21:35:31.970Z,1.67
2019-04-16T21:37:55.979Z,1.30
2019-04-16T21:40:02.593Z,3.53
2019-04-16T21:42:08.225Z,1.50
2019-04-16T21:44:13.636Z,1.30
2019-04-16T21:46:20.412Z,1.73
2019-04-16T21:48:27.089Z,1.60
2019-04-16T21:50:32.982Z,1.50
2019-04-16T21:52:38.178Z,1.50
2019-04-16T21:54:43.329Z,2.50
2019-04-16T21:56:48.350Z,1.40
2019-04-16T21:58:53.475Z,3.23
2019-04-16T22:01:16.710Z,3.00
2019-04-16T22:03:22.730Z,1.40
2019-04-16T22:05:27.891Z,1.50
2019-04-16T22:07:33.045Z,1.47
2019-04-16T22:09:38.165Z,1.60
2019-04-16T22:11:44.390Z,1.37
2019-04-16T22:13:50.635Z,1.30
2019-04-16T22:15:58.063Z,1.50
2019-04-16T22:18:07.599Z,0.90
2019-04-16T22:20:10.520Z,1.30
2019-04-16T22:22:15.864Z,1.20
2019-04-16T22:24:22.805Z,1.30
2019-04-16T22:26:34.263Z,1.50
2019-04-16T22:28:36.135Z,1.70
2019-04-16T22:30:41.903Z,1.27
2019-04-16T22:32:46.937Z,1.40
2019-04-16T22:34:52.367Z,3.03
2019-04-16T22:36:57.388Z,2.77
2019-04-16T22:39:07.943Z,1.20
2019-04-16T22:41:28.281Z,1.47
2019-04-16T22:43:53.945Z,1.63
2019-04-16T22:46:03.812Z,1.47
2019-04-16T22:48:09.193Z,1.50
2019-04-16T22:50:17.314Z,1.40
2019-04-16T22:52:21.771Z,2.13
2019-04-16T22:54:26.877Z,1.20
2019-04-16T22:56:40.340Z,1.33
2019-04-16T22:58:49.090Z,1.70
2019-04-16T23:00:58.920Z,1.53
2019-04-16T23:03:04.222Z,1.67
2019-04-16T23:05:09.587Z,2.37
2019-04-16T23:07:15.326Z,2.97
2019-04-16T23:09:22.063Z,1.77
2019-04-16T23:11:27.154Z,2.07
2019-04-16T23:13:33.286Z,1.30
2019-04-16T23:15:38.919Z,2.07
2019-04-16T23:17:46.183Z,1.30
2019-04-16T23:19:51.687Z,1.87
2019-04-16T23:21:57.467Z,1.03
2019-04-16T23:24:02.785Z,2.30
2019-04-16T23:26:07.967Z,3.03
2019-04-16T23:28:13.412Z,1.20
2019-04-16T23:30:19.235Z,1.03
2019-04-16T23:32:28.643Z,3.90
2019-04-16T23:34:31.776Z,1.20
2019-04-16T23:36:37.406Z,1.00
2019-04-16T23:38:42.497Z,0.80
2019-04-16T23:40:47.836Z,1.60
2019-04-16T23:42:59.153Z,2.00
2019-04-16T23:45:23.185Z,1.30
2019-04-16T23:47:47.278Z,4.00
2019-04-16T23:50:27.013Z,1.73
2019-04-16T23:52:35.518Z,6.20
2019-04-16T23:54:51.474Z,1.10
2019-04-16T23:57:04.901Z,1.70
2019-04-16T23:59:36.855Z,1.70
